createdAt,value
2023-02-11T00:02:41.528Z,99.99
2023-02-11T00:05:41.480Z,99.99
2023-02-11T00:06:41.496Z,99.99
2023-02-11T00:07:41.465Z,64.07
2023-02-11T00:08:41.453Z,65.22
2023-02-11T00:09:41.444Z,99.99
2023-02-11T00:13:41.405Z,99.99
2023-02-11T00:14:41.391Z,99.99
2023-02-11T00:15:41.378Z,99.99
2023-02-11T00:29:41.233Z,99.99
2023-02-11T00:31:41.372Z,99.99
2023-02-11T00:32:41.198Z,99.99
2023-02-11T00:38:41.168Z,99.99
2023-02-11T01:39:40.529Z,99.99
2023-02-11T01:43:40.483Z,99.99
2023-02-11T01:53:40.384Z,99.99
2023-02-11T01:56:40.356Z,99.99
2023-02-11T01:57:40.347Z,99.99
2023-02-11T01:58:40.355Z,99.99
2023-02-11T02:00:40.322Z,99.99
2023-02-11T02:03:40.332Z,99.99
2023-02-11T02:07:40.244Z,58.77
2023-02-11T02:08:40.238Z,99.99
2023-02-11T03:49:39.248Z,60.47
2023-02-11T03:52:39.290Z,60.79
2023-02-11T04:19:38.949Z,99.99
2023-02-11T04:25:38.879Z,99.99
2023-02-11T04:51:38.655Z,99.99
2023-02-11T05:17:38.370Z,60.40
2023-02-11T05:18:38.362Z,99.99
2023-02-11T05:19:38.351Z,99.99
2023-02-11T05:20:38.341Z,99.99
2023-02-11T05:23:38.310Z,99.99
2023-02-11T05:24:38.308Z,99.99
2023-02-11T05:26:38.303Z,99.99
2023-02-11T05:30:38.286Z,99.99
2023-02-11T05:32:38.225Z,58.90
2023-02-11T05:35:38.197Z,61.00
2023-02-11T05:36:38.193Z,61.35
2023-02-11T05:40:38.149Z,99.99
2023-02-11T05:43:38.116Z,99.99
2023-02-11T05:45:38.094Z,99.99
2023-02-11T05:46:38.159Z,99.99
2023-02-11T05:47:38.084Z,0.00
2023-02-11T05:48:38.068Z,99.99
2023-02-11T05:49:38.055Z,99.99
2023-02-11T05:50:38.067Z,99.99
2023-02-11T05:58:37.990Z,99.99
2023-02-11T05:59:37.959Z,99.99
2023-02-11T06:02:37.960Z,57.45
2023-02-11T06:07:37.888Z,99.99
2023-02-11T06:09:37.859Z,99.99
2023-02-11T06:10:37.853Z,99.99
2023-02-11T06:47:37.508Z,99.99
2023-02-11T07:55:36.794Z,54.81
2023-02-11T07:56:36.796Z,53.40
2023-02-11T07:57:36.774Z,52.65
2023-02-11T07:58:36.771Z,52.44
2023-02-11T07:59:36.751Z,52.10
2023-02-11T08:00:36.772Z,51.77
2023-02-11T08:01:36.743Z,52.60
2023-02-11T08:02:36.720Z,50.80
2023-02-11T08:03:36.715Z,50.36
2023-02-11T08:04:36.698Z,48.88
2023-02-11T08:05:36.691Z,47.19
2023-02-11T08:06:36.705Z,50.50
2023-02-11T08:07:36.666Z,51.77
2023-02-11T08:08:36.662Z,51.86
2023-02-11T08:09:36.649Z,52.97
2023-02-11T08:10:36.634Z,53.47
2023-02-11T08:11:36.626Z,53.66
2023-02-11T08:12:36.615Z,52.17
2023-02-11T08:13:36.604Z,52.46
2023-02-11T08:14:36.596Z,52.28
2023-02-11T08:15:36.584Z,51.03
2023-02-11T08:16:36.674Z,51.86
2023-02-11T08:17:36.560Z,50.28
2023-02-11T08:18:36.551Z,49.22
2023-02-11T08:19:36.541Z,48.78
2023-02-11T08:20:36.537Z,48.37
2023-02-11T08:21:36.518Z,48.10
2023-02-11T08:22:36.536Z,48.33
2023-02-11T08:23:36.500Z,49.21
2023-02-11T08:24:36.484Z,50.04
2023-02-11T08:25:36.476Z,50.06
2023-02-11T08:26:36.469Z,49.33
2023-02-11T08:27:36.456Z,49.75
2023-02-11T08:28:36.588Z,50.04
2023-02-11T08:29:36.431Z,50.32
2023-02-11T08:30:36.419Z,50.10
2023-02-11T08:31:36.531Z,49.95
2023-02-11T08:32:36.404Z,46.89
2023-02-11T08:33:36.389Z,44.67
2023-02-11T08:34:36.381Z,45.17
2023-02-11T08:35:36.375Z,44.44
2023-02-11T08:36:36.367Z,46.02
2023-02-11T08:37:36.347Z,46.85
2023-02-11T08:38:36.362Z,47.68
2023-02-11T08:39:36.328Z,48.22
2023-02-11T08:40:36.521Z,46.69
2023-02-11T08:41:36.310Z,46.17
2023-02-11T08:42:36.298Z,46.87
2023-02-11T08:43:36.286Z,47.16
2023-02-11T08:44:36.274Z,46.87
2023-02-11T08:45:36.296Z,48.32
2023-02-11T08:46:36.267Z,46.95
2023-02-11T08:47:36.248Z,47.76
2023-02-11T08:48:36.229Z,44.98
2023-02-11T08:49:36.223Z,44.20
2023-02-11T08:50:36.209Z,44.69
2023-02-11T08:51:36.202Z,43.81
2023-02-11T08:52:36.195Z,46.82
2023-02-11T08:53:36.185Z,46.00
2023-02-11T08:54:36.198Z,47.46
2023-02-11T08:55:36.178Z,46.27
2023-02-11T08:56:36.149Z,45.44
2023-02-11T08:57:36.139Z,45.44
2023-02-11T08:58:36.128Z,44.82
2023-02-11T08:59:36.117Z,43.37
2023-02-11T09:00:36.105Z,42.85
2023-02-11T09:01:36.167Z,45.62
2023-02-11T09:02:36.215Z,45.60
2023-02-11T09:03:36.078Z,44.14
2023-02-11T09:04:36.072Z,42.57
2023-02-11T09:05:36.049Z,42.57
2023-02-11T09:06:36.043Z,44.26
2023-02-11T09:07:36.035Z,43.14
2023-02-11T09:08:36.025Z,43.35
2023-02-11T09:09:36.012Z,45.52
2023-02-11T09:10:36.031Z,44.28
2023-02-11T09:11:36.015Z,46.02
2023-02-11T09:12:35.977Z,47.88
2023-02-11T09:13:35.967Z,44.03
2023-02-11T09:14:35.957Z,42.15
2023-02-11T09:15:35.943Z,44.51
2023-02-11T09:16:36.025Z,45.64
2023-02-11T09:17:35.922Z,42.21
2023-02-11T09:18:35.920Z,44.07
2023-02-11T09:19:35.909Z,44.69
2023-02-11T09:20:35.893Z,46.63
2023-02-11T09:21:35.910Z,44.28
2023-02-11T09:22:35.874Z,45.44
2023-02-11T09:23:35.872Z,46.41
2023-02-11T09:24:35.850Z,49.10
2023-02-11T09:25:35.841Z,48.08
2023-02-11T09:26:35.853Z,48.83
2023-02-11T09:27:35.819Z,49.24
2023-02-11T09:28:35.881Z,51.42
2023-02-11T09:29:35.808Z,48.27
2023-02-11T09:30:35.857Z,47.32
2023-02-11T09:31:36.015Z,47.30
2023-02-11T09:32:35.776Z,46.14
2023-02-11T09:33:35.762Z,46.14
2023-02-11T09:34:35.754Z,45.81
2023-02-11T09:35:35.740Z,45.09
2023-02-11T09:36:35.830Z,43.82
2023-02-11T09:37:37.346Z,43.31
2023-02-11T09:38:35.735Z,47.33
2023-02-11T09:39:35.700Z,46.51
2023-02-11T09:40:35.688Z,43.81
2023-02-11T09:41:35.696Z,43.48
2023-02-11T09:42:35.711Z,42.84
2023-02-11T09:43:35.655Z,41.15
2023-02-11T09:44:35.656Z,40.60
2023-02-11T09:45:35.640Z,40.60
2023-02-11T09:46:35.705Z,41.13
2023-02-11T09:47:35.872Z,42.80
2023-02-11T09:48:35.601Z,42.65
2023-02-11T09:49:35.599Z,44.14
2023-02-11T09:50:35.580Z,43.75
2023-02-11T09:51:35.575Z,46.66
2023-02-11T09:52:35.560Z,45.37
2023-02-11T09:53:35.551Z,43.19
2023-02-11T09:54:35.539Z,42.32
2023-02-11T09:55:35.533Z,41.87
2023-02-11T09:56:35.522Z,41.69
2023-02-11T09:57:35.518Z,43.25
2023-02-11T09:58:35.536Z,42.74
2023-02-11T09:59:35.492Z,42.78
2023-02-11T10:00:35.482Z,43.17
2023-02-11T10:01:35.545Z,43.05
2023-02-11T10:02:35.463Z,42.76
2023-02-11T10:03:35.456Z,42.29
2023-02-11T10:04:35.434Z,43.91
2023-02-11T10:05:35.431Z,41.68
2023-02-11T10:06:35.422Z,42.23
2023-02-11T10:07:35.412Z,40.64
2023-02-11T10:08:35.402Z,38.98
2023-02-11T10:09:35.390Z,38.04
2023-02-11T10:10:35.378Z,38.83
2023-02-11T10:11:35.377Z,38.48
2023-02-11T10:12:35.357Z,35.52
2023-02-11T10:13:35.346Z,42.28
2023-02-11T10:14:35.364Z,37.75
2023-02-11T10:15:35.393Z,36.34
2023-02-11T10:16:35.313Z,42.68
2023-02-11T10:17:35.303Z,38.48
2023-02-11T10:18:35.298Z,35.06
2023-02-11T10:19:35.286Z,35.76
2023-02-11T10:20:35.277Z,34.14
2023-02-11T10:21:35.265Z,36.76
2023-02-11T10:22:35.251Z,36.34
2023-02-11T10:23:35.246Z,33.42
2023-02-11T10:24:35.238Z,31.04
2023-02-11T10:25:35.227Z,31.35
2023-02-11T10:26:35.216Z,28.57
2023-02-11T10:27:35.203Z,32.12
2023-02-11T10:28:35.279Z,29.60
2023-02-11T10:29:35.188Z,30.85
2023-02-11T10:30:35.283Z,33.24
2023-02-11T10:31:35.263Z,33.94
2023-02-11T10:32:35.155Z,35.25
2023-02-11T10:33:35.142Z,33.10
2023-02-11T10:34:35.133Z,33.32
2023-02-11T10:35:35.121Z,35.58
2023-02-11T10:36:35.127Z,34.16
2023-02-11T10:37:35.104Z,35.30
2023-02-11T10:38:35.091Z,37.04
2023-02-11T10:39:35.082Z,37.38
2023-02-11T10:40:35.067Z,35.67
2023-02-11T10:41:35.063Z,38.23
2023-02-11T10:42:35.050Z,37.60
2023-02-11T10:43:35.035Z,36.15
2023-02-11T10:44:35.028Z,35.94
2023-02-11T10:45:35.025Z,36.64
2023-02-11T10:46:35.108Z,35.43
2023-02-11T10:47:34.999Z,35.84
2023-02-11T10:48:34.984Z,34.68
2023-02-11T10:49:34.976Z,35.60
2023-02-11T10:50:34.977Z,36.10
2023-02-11T10:51:34.980Z,30.75
2023-02-11T10:52:34.946Z,33.07
2023-02-11T10:53:34.939Z,31.74
2023-02-11T10:54:34.924Z,36.35
2023-02-11T10:55:34.913Z,35.86
2023-02-11T10:56:34.905Z,33.71
2023-02-11T10:57:34.898Z,32.49
2023-02-11T10:58:34.888Z,30.94
2023-02-11T10:59:34.880Z,31.32
2023-02-11T11:00:34.864Z,29.90
2023-02-11T11:01:34.902Z,30.49
2023-02-11T11:02:34.864Z,30.45
2023-02-11T11:03:34.835Z,32.00
2023-02-11T11:04:34.926Z,31.81
2023-02-11T11:05:34.814Z,31.71
2023-02-11T11:06:47.668Z,30.74
2023-02-11T11:07:34.787Z,32.28
2023-02-11T11:08:34.785Z,32.25
2023-02-11T11:09:34.782Z,35.62
2023-02-11T11:10:34.762Z,32.56
2023-02-11T11:11:34.751Z,31.32
2023-02-11T11:12:39.621Z,31.35
2023-02-11T11:13:34.737Z,33.84
2023-02-11T11:14:37.862Z,29.30
2023-02-11T11:15:34.714Z,29.24
2023-02-11T11:23:41.670Z,31.17
2023-02-11T11:23:43.096Z,30.96
2023-02-11T11:25:14.519Z,25.86
2023-02-11T11:25:43.089Z,27.61
2023-02-11T11:26:59.586Z,27.25
2023-02-11T15:46:27.090Z,25.29
2023-02-11T15:47:28.526Z,24.90
2023-02-11T15:48:28.520Z,25.61
2023-02-11T15:49:28.522Z,27.33
2023-02-11T15:50:28.515Z,25.42
2023-02-11T15:51:28.493Z,25.53
2023-02-11T15:52:28.483Z,25.14
2023-02-11T15:53:28.480Z,27.36
2023-02-11T15:54:28.459Z,26.25
2023-02-11T15:55:28.451Z,24.63
2023-02-11T15:56:28.534Z,24.92
2023-02-11T15:57:28.429Z,25.32
2023-02-11T15:58:28.537Z,25.14
2023-02-11T15:59:28.412Z,25.56
2023-02-11T16:00:28.402Z,29.11
2023-02-11T16:01:28.430Z,26.89
2023-02-11T16:02:28.409Z,28.20
2023-02-11T16:03:28.371Z,27.78
2023-02-11T16:04:28.430Z,28.90
2023-02-11T16:05:28.348Z,26.26
2023-02-11T16:06:28.337Z,26.07
2023-02-11T16:07:28.325Z,27.50
2023-02-11T16:08:28.335Z,29.44
2023-02-11T16:09:28.309Z,27.34
2023-02-11T16:10:28.313Z,28.68
2023-02-11T16:11:28.288Z,29.01
2023-02-11T16:12:28.275Z,29.92
2023-02-11T16:13:28.445Z,29.11
2023-02-11T16:14:28.256Z,28.51
2023-02-11T16:15:28.250Z,28.82
2023-02-11T16:16:28.310Z,29.24
2023-02-11T16:17:28.250Z,29.85
2023-02-11T16:18:37.306Z,29.84
2023-02-11T16:19:29.224Z,31.57
2023-02-11T16:20:28.191Z,29.21
2023-02-11T16:21:28.180Z,30.13
2023-02-11T16:22:28.174Z,29.43
2023-02-11T16:23:28.164Z,29.04
2023-02-11T16:24:28.261Z,30.14
2023-02-11T16:25:28.158Z,32.89
2023-02-11T16:26:28.143Z,30.24
2023-02-11T16:27:28.122Z,29.44
2023-02-11T16:28:28.210Z,29.15
2023-02-11T16:29:28.101Z,30.27
2023-02-11T16:30:28.143Z,31.21
2023-02-11T16:31:28.132Z,29.70
2023-02-11T16:32:28.076Z,32.05
2023-02-11T16:33:28.059Z,30.52
2023-02-11T16:34:28.069Z,31.14
2023-02-11T16:35:28.040Z,31.55
2023-02-11T16:36:28.077Z,31.86
2023-02-11T16:37:28.023Z,33.00
2023-02-11T16:38:28.006Z,32.71
2023-02-11T16:39:27.994Z,33.86
2023-02-11T16:40:27.982Z,35.94
2023-02-11T16:41:27.975Z,38.15
2023-02-11T16:42:27.973Z,39.70
2023-02-11T16:43:27.956Z,39.62
2023-02-11T16:44:27.945Z,40.07
2023-02-11T16:45:27.934Z,39.99
2023-02-11T16:46:27.979Z,41.96
2023-02-11T16:47:27.932Z,41.46
2023-02-11T16:48:27.900Z,41.38
2023-02-11T16:49:27.891Z,43.15
2023-02-11T16:50:27.906Z,43.99
2023-02-11T16:51:27.867Z,44.72
2023-02-11T16:52:27.860Z,46.38
2023-02-11T16:53:27.855Z,45.27
2023-02-11T16:54:27.840Z,45.99
2023-02-11T16:55:27.829Z,44.75
2023-02-11T16:56:27.824Z,50.53
2023-02-11T16:57:30.168Z,49.42
2023-02-11T16:58:27.805Z,47.46
2023-02-11T16:59:27.789Z,47.69
2023-02-11T17:00:27.867Z,50.17
2023-02-11T17:01:27.798Z,48.22
2023-02-11T17:02:27.756Z,48.64
2023-02-11T17:03:29.961Z,51.73
2023-02-11T17:04:27.775Z,50.10
2023-02-11T17:05:27.727Z,47.32
2023-02-11T17:06:27.734Z,48.87
2023-02-11T17:07:27.698Z,47.63
2023-02-11T17:08:27.688Z,46.91
2023-02-11T17:09:30.368Z,46.61
2023-02-11T17:10:27.693Z,49.82
2023-02-11T17:11:27.659Z,48.48
2023-02-11T17:12:27.696Z,47.55
2023-02-11T17:13:27.634Z,46.92
2023-02-11T17:14:27.625Z,46.74
2023-02-11T17:15:27.620Z,47.67
2023-02-11T17:16:27.704Z,47.46
2023-02-11T17:17:27.592Z,47.36
2023-02-11T17:18:27.579Z,47.18
2023-02-11T17:19:27.574Z,47.38
2023-02-11T17:20:27.562Z,47.80
2023-02-11T17:21:29.923Z,48.83
2023-02-11T17:22:27.594Z,49.14
2023-02-11T17:23:27.592Z,48.65
2023-02-11T17:24:27.545Z,49.27
2023-02-11T17:25:27.538Z,47.82
2023-02-11T17:26:27.499Z,48.01
2023-02-11T17:27:27.494Z,47.07
2023-02-11T17:28:27.528Z,46.76
2023-02-11T17:29:27.468Z,48.73
2023-02-11T17:30:27.457Z,47.92
2023-02-11T17:31:27.566Z,48.54
2023-02-11T17:32:27.434Z,49.68
2023-02-11T17:33:27.425Z,50.82
2023-02-11T17:34:27.412Z,49.91
2023-02-11T17:35:27.406Z,51.36
2023-02-11T17:36:27.394Z,51.26
2023-02-11T17:37:27.435Z,50.87
2023-02-11T17:38:27.399Z,52.32
2023-02-11T17:39:27.366Z,52.63
2023-02-11T17:40:27.354Z,52.63
2023-02-11T17:41:27.340Z,51.39
2023-02-11T17:42:27.335Z,51.08
2023-02-11T17:43:27.334Z,51.28
2023-02-11T17:44:27.315Z,50.45
2023-02-11T17:45:27.325Z,50.48
2023-02-11T17:46:27.309Z,50.76
2023-02-11T17:47:27.283Z,52.14
2023-02-11T17:48:27.273Z,52.34
2023-02-11T17:49:27.270Z,51.62
2023-02-11T17:50:29.334Z,52.45
2023-02-11T17:51:27.250Z,52.58
2023-02-11T17:52:27.227Z,52.68
2023-02-11T17:53:27.223Z,52.37
2023-02-11T17:54:27.232Z,52.68
2023-02-11T17:55:27.204Z,53.10
2023-02-11T17:56:27.190Z,52.68
2023-02-11T17:57:27.176Z,52.91
2023-02-11T17:58:27.181Z,53.54
2023-02-11T17:59:27.159Z,53.95
2023-02-11T18:00:27.150Z,53.12
2023-02-11T18:01:27.334Z,53.02
2023-02-11T18:02:27.125Z,53.85
2023-02-11T18:03:27.114Z,54.29
2023-02-11T18:04:27.150Z,54.70
2023-02-11T18:05:27.094Z,55.14
2023-02-11T18:06:27.085Z,55.04
2023-02-11T18:07:27.072Z,55.35
2023-02-11T18:08:27.066Z,54.52
2023-02-11T18:09:27.058Z,53.69
2023-02-11T18:10:27.066Z,53.06
2023-02-11T18:11:27.037Z,53.66
2023-02-11T18:12:27.025Z,53.35
2023-02-11T18:13:27.014Z,53.03
2023-02-11T18:14:27.009Z,53.35
2023-02-11T18:15:27.001Z,52.52
2023-02-11T18:16:27.029Z,52.70
2023-02-11T18:17:26.975Z,53.22
2023-02-11T18:18:26.958Z,53.02
2023-02-11T18:19:26.955Z,53.46
2023-02-11T18:20:26.941Z,55.95
2023-02-11T18:21:26.930Z,53.87
2023-02-11T18:22:26.927Z,54.39
2023-02-11T18:23:26.935Z,53.87
2023-02-11T18:24:26.899Z,53.77
2023-02-11T18:25:26.889Z,53.66
2023-02-11T18:26:27.507Z,53.77
2023-02-11T18:27:26.867Z,54.18
2023-02-11T18:28:26.908Z,53.46
2023-02-11T18:29:26.854Z,53.03
2023-02-11T18:30:26.838Z,52.52
2023-02-11T18:31:26.844Z,53.25
2023-02-11T18:32:26.823Z,52.93
2023-02-11T18:33:26.821Z,55.63
2023-02-11T18:34:26.815Z,56.98
2023-02-11T18:35:26.799Z,55.95
2023-02-11T18:36:26.781Z,54.49
2023-02-11T18:37:26.770Z,53.97
2023-02-11T18:38:26.762Z,54.18
2023-02-11T18:39:26.763Z,53.87
2023-02-11T18:40:26.736Z,53.14
2023-02-11T18:41:26.728Z,51.46
2023-02-11T18:42:26.739Z,50.94
2023-02-11T18:43:26.713Z,53.12
2023-02-11T18:44:26.702Z,52.81
2023-02-11T18:45:26.689Z,52.39
2023-02-11T18:46:26.782Z,54.16
2023-02-11T18:47:26.669Z,53.56
2023-02-11T18:48:26.660Z,52.72
2023-02-11T18:49:26.645Z,53.12
2023-02-11T18:50:26.634Z,53.54
2023-02-11T18:51:26.639Z,53.95
2023-02-11T18:52:26.628Z,53.85
2023-02-11T18:53:26.611Z,52.72
2023-02-11T18:54:26.593Z,54.60
2023-02-11T18:55:26.588Z,54.21
2023-02-11T18:56:26.581Z,54.21
2023-02-11T18:57:26.565Z,54.21
2023-02-11T18:58:26.577Z,52.64
2023-02-11T18:59:26.548Z,53.66
2023-02-11T19:00:26.560Z,52.72
2023-02-11T19:01:26.563Z,52.41
2023-02-11T19:02:26.514Z,53.14
2023-02-11T19:03:26.509Z,52.20
2023-02-11T19:04:26.537Z,52.83
2023-02-11T19:05:26.481Z,53.14
2023-02-11T19:06:26.476Z,53.35
2023-02-11T19:07:26.464Z,55.14
2023-02-11T19:08:26.455Z,53.79
2023-02-11T19:09:26.443Z,53.38
2023-02-11T19:10:26.435Z,53.58
2023-02-11T19:11:26.420Z,53.48
2023-02-11T19:12:26.410Z,53.69
2023-02-11T19:13:26.399Z,55.66
2023-02-11T19:14:26.412Z,56.41
2023-02-11T19:15:26.380Z,54.02
2023-02-11T19:16:26.380Z,53.71
2023-02-11T19:17:26.356Z,54.02
2023-02-11T19:18:26.352Z,56.72
2023-02-11T19:19:26.337Z,56.82
2023-02-11T19:20:26.330Z,56.41
2023-02-11T19:21:26.315Z,55.60
2023-02-11T19:22:26.305Z,99.99
2023-02-11T19:23:26.299Z,57.14
2023-02-11T19:24:26.287Z,54.88
2023-02-11T19:25:26.274Z,53.92
2023-02-11T19:26:26.267Z,53.63
2023-02-11T19:27:26.254Z,54.75
2023-02-11T19:28:26.369Z,55.99
2023-02-11T19:29:26.240Z,53.19
2023-02-11T19:30:26.249Z,53.08
2023-02-11T19:31:26.303Z,53.43
2023-02-11T19:32:26.210Z,56.86
2023-02-11T19:33:26.198Z,57.17
2023-02-11T19:34:26.181Z,57.37
2023-02-11T19:35:26.174Z,56.65
2023-02-11T19:36:26.165Z,57.27
2023-02-11T19:37:26.154Z,99.99
2023-02-11T19:38:26.143Z,59.14
2023-02-11T19:39:26.137Z,57.27
2023-02-11T19:40:26.122Z,56.65
2023-02-11T19:41:26.112Z,56.23
2023-02-11T19:42:27.592Z,55.11
2023-02-11T19:43:26.094Z,55.50
2023-02-11T19:44:26.084Z,55.09
2023-02-11T19:45:26.069Z,56.96
2023-02-11T19:46:26.145Z,55.40
2023-02-11T19:47:26.051Z,55.37
2023-02-11T19:48:26.037Z,54.98
2023-02-11T19:49:26.054Z,54.36
2023-02-11T19:50:26.018Z,53.92
2023-02-11T19:51:26.017Z,54.44
2023-02-11T19:52:25.999Z,53.19
2023-02-11T19:53:25.994Z,54.85
2023-02-11T19:54:25.978Z,57.03
2023-02-11T19:55:25.971Z,55.79
2023-02-11T19:56:25.959Z,56.51
2023-02-11T19:57:25.953Z,57.17
2023-02-11T19:58:25.941Z,57.58
2023-02-11T19:59:25.930Z,56.86
2023-02-11T20:00:25.922Z,55.92
2023-02-11T20:01:26.015Z,55.71
2023-02-11T20:02:25.965Z,54.98
2023-02-11T20:03:25.888Z,54.98
2023-02-11T20:04:25.889Z,56.86
2023-02-11T20:05:25.868Z,57.27
2023-02-11T20:06:25.866Z,56.78
2023-02-11T20:07:25.853Z,56.67
2023-02-11T20:08:25.835Z,56.36
2023-02-11T20:09:25.825Z,56.54
2023-02-11T20:10:25.819Z,57.79
2023-02-11T20:11:25.810Z,57.61
2023-02-11T20:12:25.792Z,57.81
2023-02-11T20:13:25.789Z,58.23
2023-02-11T20:14:27.934Z,58.12
2023-02-11T20:15:25.765Z,56.57
2023-02-11T20:16:40.683Z,57.81
2023-02-11T20:17:26.764Z,57.50
2023-02-11T20:18:25.750Z,57.61
2023-02-11T20:19:25.723Z,57.50
2023-02-11T20:20:25.711Z,56.46
2023-02-11T20:21:25.702Z,57.11
2023-02-11T20:22:25.688Z,57.95
2023-02-11T20:23:25.682Z,58.36
2023-02-11T20:24:25.679Z,57.11
2023-02-11T20:25:25.660Z,56.59
2023-02-11T20:26:25.645Z,56.28
2023-02-11T20:27:25.641Z,57.01
2023-02-11T20:28:25.754Z,56.49
2023-02-11T20:29:25.682Z,56.70
2023-02-11T20:30:25.609Z,56.49
2023-02-11T20:31:25.731Z,57.01
2023-02-11T20:32:25.589Z,56.07
2023-02-11T20:33:25.579Z,55.87
2023-02-11T20:34:25.596Z,55.34
2023-02-11T20:35:25.556Z,55.45
2023-02-11T20:36:25.548Z,55.24
2023-02-11T20:37:25.549Z,55.42
2023-02-11T20:38:25.522Z,55.52
2023-02-11T20:39:25.514Z,56.26
2023-02-11T20:40:25.505Z,56.98
2023-02-11T20:41:25.501Z,56.78
2023-02-11T20:42:25.509Z,56.05
2023-02-11T20:43:25.472Z,55.63
2023-02-11T20:44:25.470Z,55.21
2023-02-11T20:45:25.453Z,56.78
2023-02-11T20:46:25.500Z,57.61
2023-02-11T20:47:25.434Z,57.74
2023-02-11T20:48:25.420Z,56.39
2023-02-11T20:49:25.431Z,57.84
2023-02-11T20:50:25.427Z,56.80
2023-02-11T20:51:25.394Z,56.59
2023-02-11T20:52:25.377Z,56.80
2023-02-11T20:53:25.376Z,57.84
2023-02-11T20:54:25.423Z,57.32
2023-02-11T20:55:25.366Z,57.42
2023-02-11T20:56:25.351Z,58.26
2023-02-11T20:57:25.332Z,58.99
2023-02-11T20:58:25.328Z,58.16
2023-02-11T20:59:25.321Z,59.02
2023-02-11T21:00:25.311Z,58.78
2023-02-11T21:01:25.319Z,56.51
2023-02-11T21:02:25.280Z,56.80
2023-02-11T21:03:25.326Z,58.26
2023-02-11T21:04:25.259Z,57.56
2023-02-11T21:05:25.256Z,57.35
2023-02-11T21:06:25.262Z,55.89
2023-02-11T21:07:25.223Z,56.20
2023-02-11T21:08:25.218Z,57.95
2023-02-11T21:09:25.207Z,58.18
2023-02-11T21:10:25.219Z,99.99
2023-02-11T21:11:25.190Z,59.19
2023-02-11T21:12:25.179Z,57.84
2023-02-11T21:13:25.164Z,57.87
2023-02-11T21:14:25.155Z,56.62
2023-02-11T21:15:25.168Z,57.25
2023-02-11T21:16:25.249Z,57.45
2023-02-11T21:17:25.125Z,56.90
2023-02-11T21:18:25.113Z,57.01
2023-02-11T21:19:25.171Z,57.95
2023-02-11T21:20:25.095Z,58.16
2023-02-11T21:21:25.082Z,57.84
2023-02-11T21:22:25.105Z,58.36
2023-02-11T21:23:25.066Z,58.05
2023-02-11T21:24:25.051Z,58.36
2023-02-11T21:25:25.043Z,57.84
2023-02-11T21:26:25.038Z,58.57
2023-02-11T21:27:25.026Z,58.26
2023-02-11T21:28:25.043Z,56.70
2023-02-11T21:29:25.014Z,56.07
2023-02-11T21:30:24.996Z,55.99
2023-02-11T21:31:25.134Z,54.95
2023-02-11T21:32:24.973Z,55.87
2023-02-11T21:33:24.960Z,55.79
2023-02-11T21:34:24.950Z,55.37
2023-02-11T21:35:24.943Z,56.18
2023-02-11T21:36:24.929Z,56.39
2023-02-11T21:37:24.930Z,55.45
2023-02-11T21:38:24.935Z,56.07
2023-02-11T21:39:24.904Z,56.82
2023-02-11T21:40:24.894Z,58.28
2023-02-11T21:41:25.031Z,58.28
2023-02-11T21:42:24.870Z,57.35
2023-02-11T21:43:24.855Z,59.02
2023-02-11T21:44:24.847Z,59.74
2023-02-11T21:45:24.835Z,57.56
2023-02-11T21:46:24.937Z,56.93
2023-02-11T21:47:24.820Z,58.08
2023-02-11T21:48:24.806Z,58.28
2023-02-11T21:49:24.796Z,58.52
2023-02-11T21:50:24.784Z,58.52
2023-02-11T21:51:24.772Z,58.00
2023-02-11T21:52:24.766Z,58.10
2023-02-11T21:53:24.757Z,58.96
2023-02-11T21:54:24.766Z,58.23
2023-02-11T21:55:24.734Z,58.75
2023-02-11T21:56:24.724Z,58.55
2023-02-11T21:57:24.716Z,58.34
2023-02-11T21:58:24.711Z,59.72
2023-02-11T21:59:24.693Z,57.74
2023-02-11T22:00:24.716Z,57.95
2023-02-11T22:01:24.677Z,58.36
2023-02-11T22:02:24.660Z,58.99
2023-02-11T22:03:24.648Z,60.87
2023-02-11T22:04:24.702Z,61.26
2023-02-11T22:05:24.632Z,61.36
2023-02-11T22:06:24.621Z,59.80
2023-02-11T22:07:24.611Z,59.69
2023-02-11T22:08:24.604Z,60.42
2023-02-11T22:09:24.606Z,59.80
2023-02-11T22:10:24.603Z,59.17
2023-02-11T22:11:24.572Z,59.17
2023-02-11T22:12:24.558Z,59.69
2023-02-11T22:13:24.547Z,60.84
2023-02-11T22:14:24.536Z,60.11
2023-02-11T22:15:24.528Z,59.80
2023-02-11T22:16:24.573Z,60.42
2023-02-11T22:17:24.646Z,58.96
2023-02-11T22:18:24.500Z,58.03
2023-02-11T22:19:24.490Z,59.59
2023-02-11T22:20:24.475Z,58.94
2023-02-11T22:21:24.462Z,59.56
2023-02-11T22:22:24.453Z,60.94
2023-02-11T22:23:24.441Z,59.38
2023-02-11T22:24:24.433Z,58.13
2023-02-11T22:25:24.425Z,57.61
2023-02-11T22:26:24.542Z,57.09
2023-02-11T22:27:24.398Z,57.82
2023-02-11T22:28:24.441Z,57.92
2023-02-11T22:29:24.380Z,58.83
2023-02-11T22:30:24.369Z,59.25
2023-02-11T22:31:24.559Z,58.65
2023-02-11T22:32:24.348Z,58.44
2023-02-11T22:33:24.337Z,58.34
2023-02-11T22:34:24.322Z,57.92
2023-02-11T22:35:24.308Z,57.92
2023-02-11T22:36:24.328Z,57.61
2023-02-11T22:37:24.293Z,57.19
2023-02-11T22:38:24.285Z,55.73
2023-02-11T22:39:24.272Z,56.15
2023-02-11T22:40:24.256Z,58.55
2023-02-11T22:41:24.257Z,58.34
2023-02-11T22:42:24.258Z,58.75
2023-02-11T22:43:24.231Z,59.59
2023-02-11T22:44:24.214Z,58.75
2023-02-11T22:45:24.205Z,58.23
2023-02-11T22:46:24.190Z,58.55
2023-02-11T22:47:24.180Z,56.96
2023-02-11T22:48:24.172Z,55.50
2023-02-11T22:49:24.156Z,57.27
2023-02-11T22:50:24.148Z,57.89
2023-02-11T22:51:24.139Z,56.23
2023-02-11T22:52:24.125Z,57.69
2023-02-11T22:53:24.118Z,57.37
2023-02-11T22:54:24.106Z,57.27
2023-02-11T22:55:24.105Z,57.29
2023-02-11T22:56:24.087Z,56.15
2023-02-11T22:57:24.226Z,55.63
2023-02-11T22:58:24.094Z,58.34
2023-02-11T22:59:24.056Z,57.82
2023-02-11T23:00:24.042Z,57.19
2023-02-11T23:01:24.072Z,56.88
2023-02-11T23:02:24.068Z,56.88
2023-02-11T23:03:24.011Z,56.25
2023-02-11T23:04:23.998Z,56.36
2023-02-11T23:05:23.991Z,57.19
2023-02-11T23:06:23.986Z,58.13
2023-02-11T23:07:23.970Z,56.25
2023-02-11T23:08:23.967Z,56.88
2023-02-11T23:09:23.944Z,57.71
2023-02-11T23:10:23.951Z,58.65
2023-02-11T23:11:23.925Z,58.03
2023-02-11T23:12:23.917Z,57.71
2023-02-11T23:13:23.904Z,58.00
2023-02-11T23:14:23.918Z,58.10
2023-02-11T23:15:23.883Z,58.52
2023-02-11T23:16:23.919Z,58.42
2023-02-11T23:17:23.865Z,57.37
2023-02-11T23:18:23.856Z,56.75
2023-02-11T23:19:23.861Z,57.06
2023-02-11T23:20:23.834Z,56.43
2023-02-11T23:21:23.823Z,57.69
2023-02-11T23:22:23.812Z,59.04
2023-02-11T23:23:23.799Z,60.73
2023-02-11T23:24:23.789Z,61.26
2023-02-11T23:25:23.779Z,59.90
2023-02-11T23:26:23.769Z,60.84
2023-02-11T23:33:23.691Z,61.26
2023-02-11T23:34:23.683Z,60.84
2023-02-11T23:35:23.687Z,59.80
2023-02-11T23:36:23.670Z,60.11
2023-02-11T23:37:23.656Z,59.80
2023-02-11T23:38:23.646Z,59.49
2023-02-11T23:39:23.634Z,58.13
2023-02-11T23:40:23.625Z,57.82
2023-02-11T23:41:23.614Z,60.52
2023-02-11T23:42:23.606Z,61.36
2023-02-11T23:43:24.448Z,61.26
2023-02-11T23:44:23.587Z,59.90
2023-02-11T23:45:23.574Z,60.71
2023-02-11T23:46:23.655Z,60.29
2023-02-11T23:47:23.552Z,59.46
2023-02-11T23:48:23.548Z,57.29
2023-02-11T23:49:23.530Z,58.23
2023-02-11T23:50:23.520Z,57.92
2023-02-11T23:51:23.544Z,57.19
2023-02-11T23:52:23.505Z,59.69
2023-02-11T23:53:23.488Z,59.90
2023-02-11T23:55:23.467Z,58.34
2023-02-11T23:56:23.468Z,58.34
2023-02-11T23:57:23.449Z,60.00
2023-02-11T23:58:23.441Z,60.11
2023-02-11T23:59:23.421Z,58.55
